Apollon D — A8QD6 — position and weather

sailwx.info

Track history (hours):
 
Tides and Currents Weather Stations Pressure Air Temp Water Temp Dewpoint Dewpoint Depression Visibility Wind Speed Wind Dir Waves Ship Positions

Apollon D

Last reported at 2018-Jun-04 23:06 UTC. Time now 2018-Jun-21 02:49 UTC.
Position N 23°17' E 117°35'.
Warning: this ship's position is 16 days out of date.

Length 209 m; draft 10.1 m.

Type: Ship (hazmat cat A). MMSI: 636091614.

Date/timePositionNaut miles runAvg speedWind from/ knotsBaromVisibWave heightAir tempDewpointWater temp
2018-Jun-04 23:06N 23°17' E 117°35'219.2
2018-Jun-04 23:00N 23°17' E 117°36'1019.2
2018-Jun-04 22:30N 23°22' E 117°46'1019.4
2018-Jun-04 21:58N 23°28' E 117°55'919.2
2018-Jun-04 21:29N 23°32' E 118°04'1019.1
2018-Jun-04 20:58N 23°38' E 118°13'5218.7
2018-Jun-04 18:10N 24°07' E 119°00'318.9
2018-Jun-04 18:00N 24°08' E 119°03'  
2018-Jun-02 09:22N 33°42' E 134°44'818.5
2018-Jun-02 08:55N 33°49' E 134°50'1017.8
2018-Jun-02 08:21N 33°59' E 134°53'618.1
2018-Jun-02 08:00N 34°05' E 134°55'918.0
2018-Jun-02 07:30N 34°14' E 134°58'815.5
2018-Jun-02 07:01N 34°21' E 134°60'917.7
2018-Jun-02 06:31N 34°28' E 135°07'917.6
2018-Jun-02 06:01N 34°35' E 135°13'611.6
2018-Jun-02 05:30N 34°40' E 135°15'0 0.8
2018-Jun-02 04:55N 34°41' E 135°16'0 0.0
2018-Jun-02 04:25N 34°41' E 135°16'0 0.0
2018-Jun-02 03:58N 34°41' E 135°16'0 0.0
2018-Jun-02 03:28N 34°41' E 135°16'0 0.0
2018-Jun-02 02:58N 34°41' E 135°16'0 0.0
2018-Jun-02 02:28N 34°41' E 135°16'0 0.0
2018-Jun-02 01:55N 34°41' E 135°16'0 0.0
2018-Jun-02 01:28N 34°41' E 135°16'0 0.0
2018-Jun-02 00:55N 34°41' E 135°16'0 0.0
2018-Jun-02 00:28N 34°41' E 135°16'0 0.0
2018-Jun-01 23:55N 34°41' E 135°16'0 0.0
2018-Jun-01 23:30N 34°41' E 135°16'1 1.9
2018-Jun-01 23:00N 34°40' E 135°15'3 6.9
2018-Jun-01 22:30N 34°37' E 135°17'2 5.0
2018-Jun-01 22:00N 34°35' E 135°15'714.3
2018-Jun-01 21:31N 34°29' E 135°10'816.8
2018-Jun-01 21:01N 34°23' E 135°03'816.0
2018-Jun-01 20:30N 34°15' E 134°59'713.4
2018-Jun-01 20:00N 34°09' E 134°60'714.7
2018-Jun-01 19:30N 34°01' E 134°60'714.8
2018-Jun-01 19:00N 33°54' E 134°60'815.5
2018-Jun-01 18:30N 33°46' E 135°02'224 7.1
2018-May-31 10:44N 34°53' E 139°21'313.8
2018-May-31 10:30N 34°55' E 139°24'713.6
2018-May-31 09:58N 34°59' E 139°31'613.9
2018-May-31 09:30N 35°03' E 139°37'714.0
2018-May-31 08:59N 35°07' E 139°44'612.2
2018-May-31 08:30N 35°13' E 139°47'510.9
2018-May-31 08:00N 35°18' E 139°44'612.5
2018-May-31 07:30N 35°24' E 139°41'1 1.3
2018-May-31 06:58N 35°24' E 139°41'0 0.0
2018-May-31 06:28N 35°24' E 139°41'0 0.0
2018-May-31 05:58N 35°24' E 139°41'0 0.0
2018-May-31 05:28N 35°24' E 139°41'0 0.0
2018-May-31 04:58N 35°24' E 139°41'0 0.0
2018-May-31 04:28N 35°24' E 139°41'0 0.0
2018-May-31 03:58N 35°24' E 139°41'0 0.0
2018-May-31 03:25N 35°24' E 139°41'0 0.0
2018-May-31 02:58N 35°24' E 139°41'0 0.0
2018-May-31 02:28N 35°24' E 139°41'0 0.0
2018-May-31 01:58N 35°24' E 139°41'0 0.0
2018-May-31 01:28N 35°24' E 139°41'0 0.0
2018-May-31 00:58N 35°24' E 139°41'0 0.0
2018-May-31 00:28N 35°24' E 139°41'0 0.0
2018-May-30 23:58N 35°24' E 139°41'0 0.0
2018-May-30 23:28N 35°24' E 139°41'0 0.5
2018-May-30 23:00N 35°24' E 139°41'1 1.4
2018-May-30 22:30N 35°23' E 139°41'611.8
2018-May-30 22:00N 35°27' E 139°47'612.9
2018-May-30 21:30N 35°33' E 139°51'5 9.9
2018-May-30 21:00N 35°36' E 139°46'0 0.3
2018-May-30 20:27N 35°36' E 139°46'0 0.0
2018-May-30 16:21N 35°36' E 139°46'0 0.0
2018-May-30 12:33N 35°36' E 139°46'0 0.1
2018-May-30 12:27N 35°36' E 139°46'0 0.0
2018-May-30 11:57N 35°36' E 139°46'0 0.0
2018-May-30 11:21N 35°36' E 139°46'0 0.0
2018-May-30 09:39N 35°36' E 139°46'0 0.0
2018-May-30 09:21N 35°36' E 139°46'0 1.2
2018-May-30 08:58N 35°36' E 139°47'4 9.7
2018-May-30 08:30N 35°33' E 139°51'710.1
2018-May-30 07:51N 35°27' E 139°49'412.3
2018-May-30 07:30N 35°23' E 139°46'611.6
2018-May-30 07:00N 35°18' E 139°45'612.3
2018-May-30 06:30N 35°12' E 139°47'5 9.9
2018-May-30 05:59N 35°07' E 139°44'612.0
2018-May-30 05:30N 35°03' E 139°39'612.2
2018-May-30 04:59N 34°59' E 139°34'612.2
2018-May-30 04:30N 34°54' E 139°28'  
2018-May-26 16:00N 24°05' E 118°58'917.2
2018-May-26 15:30N 24°00' E 118°50'917.3
2018-May-26 15:00N 23°55' E 118°42'917.3
2018-May-26 14:30N 23°51' E 118°35'917.4
2018-May-26 14:00N 23°46' E 118°27'917.4
2018-May-26 13:30N 23°41' E 118°18'918.1
2018-May-26 13:00N 23°36' E 118°10'1018.5
2018-May-26 12:29N 23°31' E 118°02'1018.6
2018-May-26 11:56N 23°26' E 117°52'2819.0
2018-May-26 10:26N 23°11' E 117°25'818.6
2018-May-26 09:59N 23°06' E 117°18'918.2
2018-May-26 09:30N 23°01' E 117°10'917.8
2018-May-26 09:00N 22°57' E 117°02'917.6
2018-May-26 08:30N 22°52' E 116°54'917.3
2018-May-26 07:59N 22°47' E 116°46'  
Track history (hours):
 
Tides and Currents Weather Stations Pressure Air Temp Water Temp Dewpoint Dewpoint Depression Visibility Wind Speed Wind Dir Waves Ship Positions

Apollon D

Last reported at 2018-Jun-04 23:06 UTC. Time now 2018-Jun-21 02:49 UTC.
Position N 23°17' E 117°35'.
Warning: this ship's position is 16 days out of date.

Length 209 m; draft 10.1 m.

Type: Ship (hazmat cat A). MMSI: 636091614.

Date/timePositionNaut miles runAvg speedWind from/ knotsBaromVisibWave heightAir tempDewpointWater temp
2018-Jun-04 23:06N 23°17' E 117°35'219.2
2018-Jun-04 23:00N 23°17' E 117°36'1019.2
2018-Jun-04 22:30N 23°22' E 117°46'1019.4
2018-Jun-04 21:58N 23°28' E 117°55'919.2
2018-Jun-04 21:29N 23°32' E 118°04'1019.1
2018-Jun-04 20:58N 23°38' E 118°13'5218.7
2018-Jun-04 18:10N 24°07' E 119°00'318.9
2018-Jun-04 18:00N 24°08' E 119°03'  
2018-Jun-02 09:22N 33°42' E 134°44'818.5
2018-Jun-02 08:55N 33°49' E 134°50'1017.8
2018-Jun-02 08:21N 33°59' E 134°53'618.1
2018-Jun-02 08:00N 34°05' E 134°55'918.0
2018-Jun-02 07:30N 34°14' E 134°58'815.5
2018-Jun-02 07:01N 34°21' E 134°60'917.7
2018-Jun-02 06:31N 34°28' E 135°07'917.6
2018-Jun-02 06:01N 34°35' E 135°13'611.6
2018-Jun-02 05:30N 34°40' E 135°15'0 0.8
2018-Jun-02 04:55N 34°41' E 135°16'0 0.0
2018-Jun-02 04:25N 34°41' E 135°16'0 0.0
2018-Jun-02 03:58N 34°41' E 135°16'0 0.0
2018-Jun-02 03:28N 34°41' E 135°16'0 0.0
2018-Jun-02 02:58N 34°41' E 135°16'0 0.0
2018-Jun-02 02:28N 34°41' E 135°16'0 0.0
2018-Jun-02 01:55N 34°41' E 135°16'0 0.0
2018-Jun-02 01:28N 34°41' E 135°16'0 0.0
2018-Jun-02 00:55N 34°41' E 135°16'0 0.0
2018-Jun-02 00:28N 34°41' E 135°16'0 0.0
2018-Jun-01 23:55N 34°41' E 135°16'0 0.0
2018-Jun-01 23:30N 34°41' E 135°16'1 1.9
2018-Jun-01 23:00N 34°40' E 135°15'3 6.9
2018-Jun-01 22:30N 34°37' E 135°17'2 5.0
2018-Jun-01 22:00N 34°35' E 135°15'714.3
2018-Jun-01 21:31N 34°29' E 135°10'816.8
2018-Jun-01 21:01N 34°23' E 135°03'816.0
2018-Jun-01 20:30N 34°15' E 134°59'713.4
2018-Jun-01 20:00N 34°09' E 134°60'714.7
2018-Jun-01 19:30N 34°01' E 134°60'714.8
2018-Jun-01 19:00N 33°54' E 134°60'815.5
2018-Jun-01 18:30N 33°46' E 135°02'224 7.1
2018-May-31 10:44N 34°53' E 139°21'313.8
2018-May-31 10:30N 34°55' E 139°24'713.6
2018-May-31 09:58N 34°59' E 139°31'613.9
2018-May-31 09:30N 35°03' E 139°37'714.0
2018-May-31 08:59N 35°07' E 139°44'612.2
2018-May-31 08:30N 35°13' E 139°47'510.9
2018-May-31 08:00N 35°18' E 139°44'612.5
2018-May-31 07:30N 35°24' E 139°41'1 1.3
2018-May-31 06:58N 35°24' E 139°41'0 0.0
2018-May-31 06:28N 35°24' E 139°41'0 0.0
2018-May-31 05:58N 35°24' E 139°41'0 0.0
2018-May-31 05:28N 35°24' E 139°41'0 0.0
2018-May-31 04:58N 35°24' E 139°41'0 0.0
2018-May-31 04:28N 35°24' E 139°41'0 0.0
2018-May-31 03:58N 35°24' E 139°41'0 0.0
2018-May-31 03:25N 35°24' E 139°41'0 0.0
2018-May-31 02:58N 35°24' E 139°41'0 0.0
2018-May-31 02:28N 35°24' E 139°41'0 0.0
2018-May-31 01:58N 35°24' E 139°41'0 0.0
2018-May-31 01:28N 35°24' E 139°41'0 0.0
2018-May-31 00:58N 35°24' E 139°41'0 0.0
2018-May-31 00:28N 35°24' E 139°41'0 0.0
2018-May-30 23:58N 35°24' E 139°41'0 0.0
2018-May-30 23:28N 35°24' E 139°41'0 0.5
2018-May-30 23:00N 35°24' E 139°41'1 1.4
2018-May-30 22:30N 35°23' E 139°41'611.8
2018-May-30 22:00N 35°27' E 139°47'612.9
2018-May-30 21:30N 35°33' E 139°51'5 9.9
2018-May-30 21:00N 35°36' E 139°46'0 0.3
2018-May-30 20:27N 35°36' E 139°46'0 0.0
2018-May-30 16:21N 35°36' E 139°46'0 0.0
2018-May-30 12:33N 35°36' E 139°46'0 0.1
2018-May-30 12:27N 35°36' E 139°46'0 0.0
2018-May-30 11:57N 35°36' E 139°46'0 0.0
2018-May-30 11:21N 35°36' E 139°46'0 0.0
2018-May-30 09:39N 35°36' E 139°46'0 0.0
2018-May-30 09:21N 35°36' E 139°46'0 1.2
2018-May-30 08:58N 35°36' E 139°47'4 9.7
2018-May-30 08:30N 35°33' E 139°51'710.1
2018-May-30 07:51N 35°27' E 139°49'412.3
2018-May-30 07:30N 35°23' E 139°46'611.6
2018-May-30 07:00N 35°18' E 139°45'612.3
2018-May-30 06:30N 35°12' E 139°47'5 9.9
2018-May-30 05:59N 35°07' E 139°44'612.0
2018-May-30 05:30N 35°03' E 139°39'612.2
2018-May-30 04:59N 34°59' E 139°34'612.2
2018-May-30 04:30N 34°54' E 139°28'  
2018-May-26 16:00N 24°05' E 118°58'917.2
2018-May-26 15:30N 24°00' E 118°50'917.3
2018-May-26 15:00N 23°55' E 118°42'917.3
2018-May-26 14:30N 23°51' E 118°35'917.4
2018-May-26 14:00N 23°46' E 118°27'917.4
2018-May-26 13:30N 23°41' E 118°18'918.1
2018-May-26 13:00N 23°36' E 118°10'1018.5
2018-May-26 12:29N 23°31' E 118°02'1018.6
2018-May-26 11:56N 23°26' E 117°52'2819.0
2018-May-26 10:26N 23°11' E 117°25'818.6
2018-May-26 09:59N 23°06' E 117°18'918.2
2018-May-26 09:30N 23°01' E 117°10'917.8
2018-May-26 09:00N 22°57' E 117°02'917.6
2018-May-26 08:30N 22°52' E 116°54'917.3
2018-May-26 07:59N 22°47' E 116°46'  

Dump ship's entire track history